Walpole, New Hampshire
Current Conditions -  °F | °C
As of 11:15 AM on Thursday 30 Oct 2014 (Local Time) from KEEN Reporting Station
Scattered Clouds Scattered Clouds  
Wind Chill: 45°   Ceiling: Unl
Heat Index: 45°   Visibility: 10mi
Dew Point: 36°   Wind: 3mph
Humidity: 71%   Direction: 230°SW
Pressure: 29.96"   Gusts: NA
Location:  43.08°N, 72.42°W
Report Text: KEEN 301515Z AUTO 23003KT 10SM SCT070 07/02 A2996 RMK AO1
Loading
Personal Weather Stations






























Interactive Weather Map
Tropical Storm Tracking
New forecast layout! Learn more

10-Day Weather Forecast

Advertisements
Track Severe Weather on mobile